AirNav   ATP
 
 325 users online  

01UT La Sal Junction Airport
La Sal, Utah, USA

GOING TO LA SAL?


FAA INFORMATION EFFECTIVE 12 OCTOBER 2017

Location

FAA Identifier: 01UT
Lat/Long: 38-18-29.9500N / 109-23-47.4080W
38-18.499167N / 109-23.790133W
38.3083194 / -109.3965022
(estimated)
Elevation: 6000 ft. / 1829 m (estimated)
Variation: 13E (1985)
From city: 6 miles W of LA SAL, UT
Time zone: UTC -6 (UTC -7 during Standard Time)
Zip code: 84532

Airport Operations

Airport use: Private use. Permission required prior to landing
Activation date: 09/1970
Control tower: no
ARTCC: DENVER CENTER
FSS: CEDAR CITY FLIGHT SERVICE STATION
Attendance: UNATNDD
Wind indicator: yes
Segmented circle: no

Nearby radio navigation aids

VOR radial/distance  VOR name  Freq  Var
OABr133/31.6MOAB VOR/DME109.8015E
DVCr310/37.2DOVE CREEK VORTAC114.6014E

Airport Services

Airframe service: NONE
Powerplant service: NONE

Runway Information

Runway E/W

Dimensions: 3200 x 40 ft. / 975 x 12 m
Surface: dirt, in poor condition
RUNWAY E  RUNWAY W
Traffic pattern: leftleft
Markings: nonenone
Runway end identifier lights: nono
Obstructions: 30 ft. hill, 400 ft. from runway, 100 ft. left of centerline, 13:1 slope to clear18 ft. tree, 100 ft. from runway, 30 ft. right of centerline, 5:1 slope to clear

Airport Ownership and Management from official FAA records

Ownership: Privately-owned
Owner: K MC DOUGALD
BOX 1330, MC DOUGALD OIL CO
MOAB, UT 84532
Phone 801-259-6156
Manager: K MC DOUGALD
BOX 1330, MC DOUGALD OIL CO
MOAB, UT 84532
Phone 801-259-6156

Airport Operational Statistics

Aircraft operations: 100/year *
100% transient general aviation
* for 12-month period ending 31 August 1983

Additional Remarks

LAND EAST TAKEOFF TO WEST DUE TO GRADIENT.
LANDING SURFACE ROUGH, SOFT WHEN WET.
EAST RWY HAS 6 TO 8 INCHES DITCH ON BOTH SIDES FROM DRAINAGE.
EAST RWY HAS 6 INCHES - 8 INCHES DITCH ON BOTH SIDES FROM DRAINAGE.

Instrument Procedures

There are no published instrument procedures at 01UT.

Some nearby airports with instrument procedures:

KCNY - Canyonlands Field Airport (32 nm NW)
KAIB - Hopkins Field Airport (39 nm E)
KBDG - Blanding Municipal Airport (44 nm S)
KGJT - Grand Junction Regional Airport (64 nm NE)
KAJZ - Blake Field Airport (69 nm NE)
 
Loc | Ops | Rwys | IFR | FBO | Links
Com | Nav | Svcs | Stats | Notes


 
Area around 01UT (La Sal Junction Airport)
 
Road maps at: MapQuest Bing Google
 
Aerial photo
No photo
 
Sectional chart

 
Airport distance calculator
Flying to La Sal Junction Airport? Find the distance to fly.

From to 01UT

Sunrise and sunset
Times for 22-Oct-2017
 Local
(UTC-6)
 Zulu
(UTC)
Morning civil twilight07:0813:08
Sunrise07:3513:35
Sunset18:3000:30
Evening civil twilight18:5700:57

Current date and time
Zulu (UTC)  22-Oct-2017 07:26:56
Local (UTC-6)  22-Oct-2017 01:26:56
 
METAR
KCNY 
32nm NW 
220653Z AUTO 00000KT 10SM CLR 03/M12 A3033 RMK AO2 SLP262 T00281122 401390011
KAIB 
39nm E 
220715Z AUTO 11008KT 10SM CLR 01/M13 A3042 RMK AO2
KBDG 
44nm S 
220715Z AUTO 08003KT 10SM 04/M15 A3043 RMK AO1 T00431151
TAF
KCNY 
32nm NW 
220537Z 2206/2306 VRB03KT P6SM FEW250
NOTAMs
Click for the latest NOTAMs
NOTAMs are issued by the DoD/FAA and will open in a separate window not controlled by AirNav.

 

 
 

Would you like to see your business listed on this page?

 If your business provides an interesting product or service to pilots, flight crews, aircraft, or users of the La Sal Junction Airport, you should consider listing it here.  To start the listing process, click on the button below
 
Add a business
 

Other Pages about La Sal Junction Airport

Update a link
 
Copyright © AirNav, LLC. All rights reserved. Privacy Policy  Contact